QFA2 WSSS-YSSY
Flight info
| Callsign | QFA2 |
|---|---|
| Flight time | N/A |
| Altitude | 37000 |
| Route | IDBUD1B IDBUD T24 SURGA M635 ATMAP A576 TATUK/N0487F390 A576 APOMA Y52 VELGI Y105 TARAL Y59 RIVET |
| Aircraft | A388/J-SADE2E3FGHIJ4J5M1P2RWYZ/LB1D1 |
Departure
| Time | 2026-05-07 05:49 |
|---|---|
| Airport | Singapore Changi Airport (WSSS) |
Arrival
| Time | N/A |
|---|---|
| Airport | Sydney Kingsford Smith International Airport (YSSY) |
| Time | Latitude | Longitude | Altitude | Speed | Heading |
|---|---|---|---|---|---|
| 2026-05-07 05:20 | 1.36308 | 103.99361 | 35 ft | 0 kts | 307° |
| 2026-05-07 05:40 | 1.36307 | 103.99363 | 63 ft | 2 kts | 307° |
| 2026-05-07 05:40 | 1.36295 | 103.99384 | 34 ft | 4 kts | 290° |
| 2026-05-07 05:40 | 1.36285 | 103.99407 | 33 ft | 4 kts | 304° |
| 2026-05-07 05:41 | 1.36273 | 103.99421 | 33 ft | 4 kts | 329° |
| 2026-05-07 05:41 | 1.36259 | 103.99424 | 31 ft | 4 kts | 13° |
| 2026-05-07 05:41 | 1.36237 | 103.99416 | 32 ft | 4 kts | 23° |
| 2026-05-07 05:41 | 1.36212 | 103.99405 | 33 ft | 3 kts | 23° |
| 2026-05-07 05:42 | 1.36209 | 103.99404 | 34 ft | 0 kts | 23° |
| 2026-05-07 05:44 | 1.36219 | 103.99408 | 33 ft | 4 kts | 23° |
| 2026-05-07 05:45 | 1.36247 | 103.99420 | 32 ft | 7 kts | 24° |
| 2026-05-07 05:45 | 1.36293 | 103.99455 | 35 ft | 10 kts | 54° |
| 2026-05-07 05:45 | 1.36337 | 103.99519 | 35 ft | 10 kts | 66° |
| 2026-05-07 05:45 | 1.36339 | 103.99550 | 35 ft | 6 kts | 109° |
| 2026-05-07 05:46 | 1.36317 | 103.99599 | 35 ft | 9 kts | 114° |
| 2026-05-07 05:46 | 1.36288 | 103.99665 | 35 ft | 11 kts | 114° |
| 2026-05-07 05:46 | 1.36260 | 103.99728 | 35 ft | 9 kts | 114° |
| 2026-05-07 05:46 | 1.36237 | 103.99782 | 35 ft | 10 kts | 112° |
| 2026-05-07 05:47 | 1.36209 | 103.99849 | 35 ft | 10 kts | 112° |
| 2026-05-07 05:47 | 1.36189 | 103.99884 | 35 ft | 4 kts | 149° |
| 2026-05-07 05:47 | 1.36162 | 103.99886 | 35 ft | 5 kts | 200° |
| 2026-05-07 05:47 | 1.36120 | 103.99868 | 35 ft | 9 kts | 203° |
| 2026-05-07 05:48 | 1.35930 | 103.99786 | 35 ft | 64 kts | 202° |
| 2026-05-07 05:48 | 1.35307 | 103.99525 | 35 ft | 126 kts | 202° |
| 2026-05-07 05:48 | 1.34362 | 103.99128 | 38 ft | 164 kts | 203° |
| 2026-05-07 05:48 | 1.33275 | 103.98671 | 302 ft | 171 kts | 201° |
| 2026-05-07 05:49 | 1.32158 | 103.98233 | 642 ft | 174 kts | 201° |
| 2026-05-07 05:49 | 1.31037 | 103.97781 | 972 ft | 177 kts | 202° |
| 2026-05-07 05:49 | 1.29906 | 103.97298 | 1356 ft | 175 kts | 204° |
| 2026-05-07 05:49 | 1.28794 | 103.96797 | 1715 ft | 180 kts | 204° |
| 2026-05-07 05:50 | 1.27607 | 103.96249 | 1866 ft | 196 kts | 203° |
| 2026-05-07 05:50 | 1.26301 | 103.95686 | 1965 ft | 212 kts | 202° |
| 2026-05-07 05:50 | 1.24847 | 103.95087 | 2129 ft | 237 kts | 202° |
| 2026-05-07 05:50 | 1.23217 | 103.94596 | 2470 ft | 256 kts | 185° |
| 2026-05-07 05:51 | 1.21425 | 103.94703 | 3097 ft | 261 kts | 166° |
| 2026-05-07 05:51 | 1.19671 | 103.95245 | 3702 ft | 268 kts | 163° |
| 2026-05-07 05:51 | 1.17845 | 103.95726 | 4387 ft | 271 kts | 166° |
| 2026-05-07 05:51 | 1.16003 | 103.96157 | 5105 ft | 273 kts | 167° |
| 2026-05-07 05:52 | 1.14182 | 103.96580 | 5821 ft | 275 kts | 166° |
| 2026-05-07 05:52 | 1.12336 | 103.97022 | 6492 ft | 277 kts | 165° |
| 2026-05-07 05:52 | 1.10521 | 103.97724 | 7140 ft | 278 kts | 150° |
| 2026-05-07 05:52 | 1.08914 | 103.98808 | 7817 ft | 281 kts | 141° |
| 2026-05-07 05:53 | 1.07374 | 104.00030 | 8441 ft | 284 kts | 141° |
| 2026-05-07 05:53 | 1.05802 | 104.01250 | 9087 ft | 287 kts | 142° |
| 2026-05-07 05:53 | 1.04212 | 104.02477 | 9753 ft | 288 kts | 139° |
| 2026-05-07 05:53 | 1.02835 | 104.03917 | 10224 ft | 295 kts | 126° |
| 2026-05-07 05:54 | 1.01816 | 104.05775 | 10389 ft | 312 kts | 111° |
| 2026-05-07 05:54 | 1.00982 | 104.07853 | 10562 ft | 330 kts | 112° |
| 2026-05-07 05:54 | 1.00084 | 104.10012 | 10837 ft | 341 kts | 112° |
| 2026-05-07 05:54 | 0.99167 | 104.12182 | 11367 ft | 344 kts | 112° |
| 2026-05-07 05:55 | 0.98228 | 104.14395 | 11888 ft | 347 kts | 112° |
| 2026-05-07 05:55 | 0.97281 | 104.16637 | 12425 ft | 351 kts | 112° |
| 2026-05-07 05:55 | 0.96328 | 104.18899 | 12957 ft | 354 kts | 112° |
| 2026-05-07 05:55 | 0.95381 | 104.21147 | 13482 ft | 357 kts | 112° |
| 2026-05-07 05:56 | 0.94279 | 104.23418 | 13943 ft | 361 kts | 120° |
| 2026-05-07 05:56 | 0.92950 | 104.25524 | 14420 ft | 364 kts | 122° |
| 2026-05-07 05:56 | 0.91600 | 104.27670 | 14896 ft | 366 kts | 121° |
| 2026-05-07 05:56 | 0.90248 | 104.29841 | 15368 ft | 369 kts | 121° |
| 2026-05-07 05:57 | 0.88890 | 104.32028 | 15840 ft | 372 kts | 121° |
| 2026-05-07 05:57 | 0.87517 | 104.34238 | 16316 ft | 374 kts | 121° |
| 2026-05-07 05:57 | 0.86139 | 104.36455 | 16782 ft | 377 kts | 121° |
| 2026-05-07 05:57 | 0.84750 | 104.38688 | 17230 ft | 380 kts | 121° |
| 2026-05-07 05:58 | 0.83344 | 104.40945 | 17716 ft | 382 kts | 121° |
| 2026-05-07 05:58 | 0.81917 | 104.43199 | 18131 ft | 386 kts | 124° |
| 2026-05-07 05:58 | 0.80353 | 104.45384 | 18511 ft | 388 kts | 124° |
| 2026-05-07 05:58 | 0.78782 | 104.47586 | 18911 ft | 390 kts | 124° |
| 2026-05-07 05:59 | 0.77206 | 104.49807 | 19287 ft | 392 kts | 124° |
| 2026-05-07 05:59 | 0.75640 | 104.52014 | 19659 ft | 394 kts | 124° |
| 2026-05-07 05:59 | 0.74034 | 104.54243 | 20012 ft | 397 kts | 128° |
| 2026-05-07 05:59 | 0.72044 | 104.56173 | 20340 ft | 402 kts | 142° |
| 2026-05-07 06:00 | 0.69610 | 104.57561 | 20686 ft | 406 kts | 156° |
| 2026-05-07 06:00 | 0.66906 | 104.58415 | 21030 ft | 409 kts | 162° |
| 2026-05-07 06:00 | 0.64161 | 104.59208 | 21377 ft | 412 kts | 162° |
| 2026-05-07 06:00 | 0.61409 | 104.60025 | 21731 ft | 414 kts | 162° |
| 2026-05-07 06:01 | 0.58633 | 104.60855 | 22082 ft | 416 kts | 162° |
| 2026-05-07 06:01 | 0.55853 | 104.61686 | 22412 ft | 418 kts | 162° |
| 2026-05-07 06:01 | 0.53085 | 104.62512 | 22747 ft | 420 kts | 162° |
| 2026-05-07 06:01 | 0.50295 | 104.63404 | 23072 ft | 422 kts | 155° |
| 2026-05-07 06:02 | 0.47747 | 104.64837 | 23412 ft | 421 kts | 141° |
| 2026-05-07 06:02 | 0.45643 | 104.66849 | 23680 ft | 420 kts | 127° |
| 2026-05-07 06:02 | 0.44065 | 104.69297 | 23966 ft | 420 kts | 118° |
| 2026-05-07 06:02 | 0.42634 | 104.71851 | 24225 ft | 422 kts | 118° |
| 2026-05-07 06:03 | 0.41191 | 104.74406 | 24507 ft | 423 kts | 118° |
| 2026-05-07 06:03 | 0.39727 | 104.76970 | 24784 ft | 425 kts | 118° |
| 2026-05-07 06:03 | 0.38251 | 104.79535 | 25047 ft | 427 kts | 119° |
| 2026-05-07 06:03 | 0.36761 | 104.82116 | 25317 ft | 429 kts | 119° |
| 2026-05-07 06:04 | 0.35277 | 104.84683 | 25594 ft | 431 kts | 119° |
| 2026-05-07 06:04 | 0.33771 | 104.87288 | 25874 ft | 432 kts | 119° |
| 2026-05-07 06:04 | 0.32264 | 104.89894 | 26159 ft | 434 kts | 119° |
| 2026-05-07 06:04 | 0.30749 | 104.92515 | 26440 ft | 436 kts | 119° |
| 2026-05-07 06:05 | 0.29228 | 104.95147 | 26731 ft | 438 kts | 119° |
| 2026-05-07 06:05 | 0.27699 | 104.97791 | 27011 ft | 440 kts | 119° |
| 2026-05-07 06:05 | 0.26157 | 105.00458 | 27319 ft | 442 kts | 119° |
| 2026-05-07 06:05 | 0.24631 | 105.03099 | 27617 ft | 444 kts | 119° |
| 2026-05-07 06:06 | 0.23080 | 105.05781 | 27928 ft | 446 kts | 119° |
| 2026-05-07 06:06 | 0.21521 | 105.08476 | 28249 ft | 448 kts | 119° |
| 2026-05-07 06:06 | 0.19955 | 105.11183 | 28564 ft | 450 kts | 119° |
| 2026-05-07 06:06 | 0.18384 | 105.13901 | 28898 ft | 453 kts | 119° |
| 2026-05-07 06:07 | 0.16800 | 105.16640 | 29224 ft | 455 kts | 119° |
| 2026-05-07 06:07 | 0.15209 | 105.19392 | 29574 ft | 458 kts | 119° |
| 2026-05-07 06:07 | 0.13612 | 105.22153 | 29914 ft | 460 kts | 119° |
| 2026-05-07 06:07 | 0.12026 | 105.24895 | 30229 ft | 462 kts | 119° |
| 2026-05-07 06:08 | 0.10410 | 105.27689 | 30567 ft | 464 kts | 119° |
| 2026-05-07 06:08 | 0.08791 | 105.30489 | 30950 ft | 465 kts | 119° |
| 2026-05-07 06:08 | 0.07167 | 105.33297 | 31323 ft | 467 kts | 119° |
| 2026-05-07 06:08 | 0.05536 | 105.36117 | 31621 ft | 469 kts | 119° |
| 2026-05-07 06:09 | 0.03905 | 105.38938 | 31958 ft | 471 kts | 119° |
| 2026-05-07 06:09 | 0.02262 | 105.41778 | 32293 ft | 474 kts | 119° |
| 2026-05-07 06:09 | 0.00609 | 105.44637 | 32622 ft | 476 kts | 119° |
| 2026-05-07 06:09 | -0.01051 | 105.47508 | 32951 ft | 478 kts | 119° |
| 2026-05-07 06:10 | -0.02721 | 105.50395 | 33261 ft | 481 kts | 119° |
| 2026-05-07 06:10 | -0.04395 | 105.53291 | 33584 ft | 483 kts | 119° |
| 2026-05-07 06:10 | -0.06062 | 105.56173 | 33895 ft | 485 kts | 119° |
| 2026-05-07 06:10 | -0.07751 | 105.59094 | 34164 ft | 487 kts | 119° |
| 2026-05-07 06:11 | -0.09454 | 105.62038 | 34460 ft | 489 kts | 119° |
| 2026-05-07 06:11 | -0.11160 | 105.64989 | 34775 ft | 490 kts | 119° |
| 2026-05-07 06:11 | -0.12878 | 105.67959 | 34824 ft | 493 kts | 119° |
| 2026-05-07 06:12 | -0.16313 | 105.73898 | 34827 ft | 494 kts | 119° |
| 2026-05-07 06:12 | -0.19741 | 105.79827 | 34830 ft | 494 kts | 119° |
| 2026-05-07 06:13 | -0.23170 | 105.85756 | 34824 ft | 494 kts | 119° |
| 2026-05-07 06:13 | -0.26604 | 105.91694 | 34820 ft | 494 kts | 119° |
| 2026-05-07 06:14 | -0.30059 | 105.97668 | 34801 ft | 493 kts | 119° |
| 2026-05-07 06:14 | -0.33465 | 106.03559 | 34797 ft | 492 kts | 119° |
| 2026-05-07 06:15 | -0.36891 | 106.09484 | 34803 ft | 492 kts | 119° |
| 2026-05-07 06:15 | -0.40315 | 106.15406 | 34799 ft | 492 kts | 119° |
| 2026-05-07 06:16 | -0.43736 | 106.21322 | 34791 ft | 491 kts | 119° |
| 2026-05-07 06:16 | -0.47162 | 106.27246 | 34798 ft | 492 kts | 119° |
| 2026-05-07 06:17 | -0.50588 | 106.33172 | 34800 ft | 492 kts | 119° |
| 2026-05-07 06:17 | -0.53996 | 106.39068 | 34804 ft | 494 kts | 120° |
| 2026-05-07 06:18 | -0.57441 | 106.45027 | 34824 ft | 495 kts | 120° |
| 2026-05-07 06:18 | -0.60938 | 106.50970 | 34830 ft | 496 kts | 123° |
| 2026-05-07 06:19 | -0.65238 | 106.56314 | 34825 ft | 497 kts | 131° |
| 2026-05-07 06:19 | -0.69844 | 106.61489 | 34827 ft | 498 kts | 131° |
| 2026-05-07 06:20 | -0.74442 | 106.66680 | 34806 ft | 498 kts | 130° |
| 2026-05-07 06:20 | -0.79022 | 106.71847 | 34808 ft | 498 kts | 131° |
| 2026-05-07 06:21 | -0.83627 | 106.77038 | 34825 ft | 498 kts | 131° |
| 2026-05-07 06:21 | -0.88203 | 106.82197 | 34828 ft | 498 kts | 131° |
| 2026-05-07 06:22 | -0.92804 | 106.87385 | 34833 ft | 498 kts | 131° |
| 2026-05-07 06:22 | -0.99693 | 106.95151 | 34831 ft | 498 kts | 131° |
| 2026-05-07 06:23 | -1.04298 | 107.00343 | 34809 ft | 498 kts | 131° |
| 2026-05-07 06:23 | -1.08894 | 107.05526 | 34807 ft | 498 kts | 131° |
| 2026-05-07 06:24 | -1.13501 | 107.10720 | 34808 ft | 498 kts | 131° |
| 2026-05-07 06:24 | -1.18078 | 107.15881 | 34804 ft | 499 kts | 131° |
| 2026-05-07 06:25 | -1.22679 | 107.21070 | 34810 ft | 499 kts | 131° |
| 2026-05-07 06:25 | -1.27291 | 107.26272 | 34826 ft | 499 kts | 131° |
| 2026-05-07 06:26 | -1.31318 | 107.30814 | 34826 ft | 499 kts | 131° |
| 2026-05-07 06:26 | -1.35907 | 107.35989 | 34826 ft | 499 kts | 131° |
| 2026-05-07 06:27 | -1.40486 | 107.41228 | 34811 ft | 499 kts | 130° |
| 2026-05-07 06:27 | -1.45015 | 107.46504 | 34809 ft | 499 kts | 130° |
| 2026-05-07 06:28 | -1.49531 | 107.51747 | 34809 ft | 499 kts | 129° |
| 2026-05-07 06:28 | -1.54043 | 107.56976 | 34811 ft | 499 kts | 129° |
| 2026-05-07 06:29 | -1.58587 | 107.62242 | 34823 ft | 499 kts | 129° |
| 2026-05-07 06:29 | -1.63128 | 107.67504 | 34811 ft | 499 kts | 129° |
| 2026-05-07 06:30 | -1.67667 | 107.72765 | 34810 ft | 499 kts | 129° |
| 2026-05-07 06:30 | -1.72192 | 107.78010 | 34812 ft | 500 kts | 130° |
| 2026-05-07 06:31 | -1.76740 | 107.83282 | 34813 ft | 500 kts | 130° |
| 2026-05-07 06:31 | -1.81293 | 107.88560 | 34806 ft | 501 kts | 130° |
| 2026-05-07 06:32 | -1.85815 | 107.93801 | 34811 ft | 501 kts | 129° |
| 2026-05-07 06:32 | -1.90366 | 107.99078 | 34817 ft | 501 kts | 129° |
| 2026-05-07 06:33 | -1.94921 | 108.04360 | 34827 ft | 501 kts | 129° |
| 2026-05-07 06:33 | -1.99477 | 108.09643 | 34828 ft | 501 kts | 129° |
| 2026-05-07 06:34 | -2.04026 | 108.14919 | 34825 ft | 500 kts | 129° |
| 2026-05-07 06:34 | -2.08574 | 108.20193 | 34813 ft | 500 kts | 129° |
| 2026-05-07 06:35 | -2.13102 | 108.25439 | 34810 ft | 500 kts | 129° |
| 2026-05-07 06:35 | -2.17654 | 108.30715 | 34810 ft | 500 kts | 129° |
| 2026-05-07 06:36 | -2.22206 | 108.35992 | 34809 ft | 500 kts | 129° |
| 2026-05-07 06:36 | -2.26750 | 108.41259 | 34807 ft | 500 kts | 129° |
| 2026-05-07 06:37 | -2.31271 | 108.46502 | 34813 ft | 500 kts | 129° |
| 2026-05-07 06:37 | -2.35823 | 108.51781 | 34811 ft | 499 kts | 129° |
| 2026-05-07 06:38 | -2.40331 | 108.57009 | 34806 ft | 499 kts | 129° |
| 2026-05-07 06:38 | -2.44874 | 108.62278 | 34808 ft | 499 kts | 129° |
| 2026-05-07 06:39 | -2.49394 | 108.67520 | 34809 ft | 500 kts | 129° |
| 2026-05-07 06:39 | -2.53952 | 108.72791 | 34813 ft | 499 kts | 129° |
| 2026-05-07 06:40 | -2.58513 | 108.78059 | 34816 ft | 499 kts | 129° |
| 2026-05-07 06:40 | -2.63061 | 108.83316 | 34805 ft | 500 kts | 129° |